Terminal Aerodrome Forecast
Issued by NWS Charleston, WV

Current Version | Previous Version | Graphics & Text | Print | Product List | Glossary On
Versions: 1 2 3 4 5 6 7 8 9 10 11 12 13 14 15 16 17 18 19 20 21 22 23 24 25
000
FTUS41 KRLX 191139
TAFPKB
TAF
KPKB 191139Z 1912/2012 24005KT P6SM OVC006
     FM191600 26006KT P6SM BKN012
     FM192000 25006KT P6SM SCT025
     FM200900 00000KT 3SM BR SCT025=

USA.gov is the U.S. government's official web portal to all federal, state and local government web resources and services.